sensor_id;sensor_type;location;lat;lon;timestamp;P1;durP1;ratioP1;P2;durP2;ratioP2
11962;SDS011;62678;52.130;5.584;2023-05-08T00:00:28;53.80;;;31.13;;
11962;SDS011;62678;52.130;5.584;2023-05-08T00:02:56;41.33;;;32.33;;
11962;SDS011;62678;52.130;5.584;2023-05-08T00:05:23;53.20;;;32.50;;
11962;SDS011;62678;52.130;5.584;2023-05-08T00:07:50;55.50;;;33.33;;
11962;SDS011;62678;52.130;5.584;2023-05-08T00:10:17;81.65;;;36.55;;
11962;SDS011;62678;52.130;5.584;2023-05-08T00:12:44;64.30;;;39.63;;
11962;SDS011;62678;52.130;5.584;2023-05-08T00:15:11;100.97;;;39.35;;
11962;SDS011;62678;52.130;5.584;2023-05-08T00:17:38;159.90;;;45.50;;
11962;SDS011;62678;52.130;5.584;2023-05-08T00:20:06;72.18;;;41.85;;
11962;SDS011;62678;52.130;5.584;2023-05-08T00:22:34;84.97;;;42.42;;
11962;SDS011;62678;52.130;5.584;2023-05-08T00:25:01;123.32;;;42.03;;
11962;SDS011;62678;52.130;5.584;2023-05-08T00:27:29;106.18;;;43.75;;
11962;SDS011;62678;52.130;5.584;2023-05-08T00:29:56;186.15;;;43.95;;
11962;SDS011;62678;52.130;5.584;2023-05-08T00:32:23;214.73;;;45.25;;
11962;SDS011;62678;52.130;5.584;2023-05-08T00:34:50;89.80;;;38.80;;
11962;SDS011;62678;52.130;5.584;2023-05-08T00:37:18;74.03;;;38.45;;
11962;SDS011;62678;52.130;5.584;2023-05-08T00:39:45;64.07;;;37.78;;
11962;SDS011;62678;52.130;5.584;2023-05-08T00:42:12;69.30;;;40.33;;
11962;SDS011;62678;52.130;5.584;2023-05-08T00:44:39;85.90;;;42.70;;
11962;SDS011;62678;52.130;5.584;2023-05-08T00:47:06;60.60;;;40.70;;
11962;SDS011;62678;52.130;5.584;2023-05-08T00:49:33;57.53;;;40.38;;
11962;SDS011;62678;52.130;5.584;2023-05-08T00:52:00;64.05;;;41.67;;
11962;SDS011;62678;52.130;5.584;2023-05-08T00:54:31;52.88;;;39.33;;
11962;SDS011;62678;52.130;5.584;2023-05-08T00:56:58;50.35;;;37.67;;
11962;SDS011;62678;52.130;5.584;2023-05-08T00:59:25;48.97;;;37.65;;
11962;SDS011;62678;52.130;5.584;2023-05-08T01:01:52;48.38;;;37.78;;
11962;SDS011;62678;52.130;5.584;2023-05-08T01:04:20;47.13;;;36.70;;
11962;SDS011;62678;52.130;5.584;2023-05-08T01:06:50;47.72;;;37.38;;
11962;SDS011;62678;52.130;5.584;2023-05-08T01:09:17;49.83;;;37.38;;
11962;SDS011;62678;52.130;5.584;2023-05-08T01:11:47;47.20;;;35.80;;
11962;SDS011;62678;52.130;5.584;2023-05-08T01:14:19;43.92;;;35.72;;
11962;SDS011;62678;52.130;5.584;2023-05-08T01:16:57;52.05;;;39.65;;
11962;SDS011;62678;52.130;5.584;2023-05-08T01:19:49;46.30;;;37.08;;
11962;SDS011;62678;52.130;5.584;2023-05-08T01:22:29;47.90;;;36.97;;
11962;SDS011;62678;52.130;5.584;2023-05-08T01:25:15;44.50;;;35.63;;
11962;SDS011;62678;52.130;5.584;2023-05-08T01:28:12;41.58;;;33.58;;
11962;SDS011;62678;52.130;5.584;2023-05-08T01:31:01;47.05;;;36.60;;
11962;SDS011;62678;52.130;5.584;2023-05-08T01:33:40;51.13;;;36.72;;
11962;SDS011;62678;52.130;5.584;2023-05-08T01:36:17;57.95;;;39.33;;
11962;SDS011;62678;52.130;5.584;2023-05-08T01:38:51;56.28;;;38.63;;
11962;SDS011;62678;52.130;5.584;2023-05-08T01:41:25;55.53;;;40.00;;
11962;SDS011;62678;52.130;5.584;2023-05-08T01:44:05;57.08;;;39.45;;
11962;SDS011;62678;52.130;5.584;2023-05-08T01:46:37;66.03;;;40.90;;
11962;SDS011;62678;52.130;5.584;2023-05-08T01:49:07;60.67;;;40.50;;
11962;SDS011;62678;52.130;5.584;2023-05-08T01:51:38;54.20;;;37.80;;
11962;SDS011;62678;52.130;5.584;2023-05-08T01:54:08;57.13;;;35.97;;
11962;SDS011;62678;52.130;5.584;2023-05-08T01:56:39;45.63;;;34.90;;
11962;SDS011;62678;52.130;5.584;2023-05-08T01:59:10;49.58;;;33.83;;
11962;SDS011;62678;52.130;5.584;2023-05-08T02:01:39;44.15;;;32.80;;
11962;SDS011;62678;52.130;5.584;2023-05-08T02:04:10;44.50;;;33.55;;
11962;SDS011;62678;52.130;5.584;2023-05-08T02:06:37;49.40;;;34.75;;
11962;SDS011;62678;52.130;5.584;2023-05-08T02:09:05;56.83;;;36.47;;
11962;SDS011;62678;52.130;5.584;2023-05-08T02:11:33;49.80;;;34.72;;
11962;SDS011;62678;52.130;5.584;2023-05-08T02:14:02;54.78;;;35.55;;
11962;SDS011;62678;52.130;5.584;2023-05-08T02:16:29;64.35;;;39.35;;
11962;SDS011;62678;52.130;5.584;2023-05-08T02:18:57;65.32;;;41.60;;
11962;SDS011;62678;52.130;5.584;2023-05-08T02:21:28;72.90;;;39.38;;
11962;SDS011;62678;52.130;5.584;2023-05-08T02:23:56;51.45;;;34.33;;
11962;SDS011;62678;52.130;5.584;2023-05-08T02:26:23;58.17;;;38.08;;
11962;SDS011;62678;52.130;5.584;2023-05-08T02:28:51;67.72;;;41.92;;
11962;SDS011;62678;52.130;5.584;2023-05-08T02:31:20;66.68;;;42.95;;
11962;SDS011;62678;52.130;5.584;2023-05-08T02:33:49;64.88;;;41.15;;
11962;SDS011;62678;52.130;5.584;2023-05-08T02:36:17;71.50;;;43.58;;
11962;SDS011;62678;52.130;5.584;2023-05-08T02:38:46;93.97;;;44.10;;
11962;SDS011;62678;52.130;5.584;2023-05-08T02:41:16;97.13;;;41.70;;
11962;SDS011;62678;52.130;5.584;2023-05-08T02:43:45;74.90;;;39.60;;
11962;SDS011;62678;52.130;5.584;2023-05-08T02:46:13;55.28;;;38.25;;
11962;SDS011;62678;52.130;5.584;2023-05-08T02:48:46;58.22;;;37.20;;
11962;SDS011;62678;52.130;5.584;2023-05-08T02:51:19;58.08;;;34.83;;
11962;SDS011;62678;52.130;5.584;2023-05-08T02:53:53;59.95;;;33.95;;
11962;SDS011;62678;52.130;5.584;2023-05-08T02:56:34;89.38;;;35.78;;
11962;SDS011;62678;52.130;5.584;2023-05-08T02:59:07;68.07;;;35.35;;
11962;SDS011;62678;52.130;5.584;2023-05-08T03:01:41;92.35;;;37.25;;
11962;SDS011;62678;52.130;5.584;2023-05-08T03:04:13;65.45;;;34.88;;
11962;SDS011;62678;52.130;5.584;2023-05-08T03:06:50;57.85;;;41.28;;
11962;SDS011;62678;52.130;5.584;2023-05-08T03:09:23;58.92;;;34.15;;
11962;SDS011;62678;52.130;5.584;2023-05-08T03:11:58;66.32;;;35.83;;
11962;SDS011;62678;52.130;5.584;2023-05-08T03:14:28;58.83;;;36.58;;
11962;SDS011;62678;52.130;5.584;2023-05-08T03:16:57;50.97;;;34.90;;
11962;SDS011;62678;52.130;5.584;2023-05-08T03:19:26;44.15;;;34.13;;
11962;SDS011;62678;52.130;5.584;2023-05-08T03:21:56;36.72;;;32.05;;
11962;SDS011;62678;52.130;5.584;2023-05-08T03:24:26;39.63;;;33.42;;
11962;SDS011;62678;52.130;5.584;2023-05-08T03:26:54;46.08;;;34.83;;
11962;SDS011;62678;52.130;5.584;2023-05-08T03:29:23;42.17;;;34.35;;
11962;SDS011;62678;52.130;5.584;2023-05-08T03:31:50;42.85;;;34.72;;
11962;SDS011;62678;52.130;5.584;2023-05-08T03:34:23;42.28;;;33.75;;
11962;SDS011;62678;52.130;5.584;2023-05-08T03:36:51;42.85;;;34.13;;
11962;SDS011;62678;52.130;5.584;2023-05-08T03:39:18;42.33;;;34.20;;
11962;SDS011;62678;52.130;5.584;2023-05-08T03:41:46;43.40;;;33.63;;
11962;SDS011;62678;52.130;5.584;2023-05-08T03:44:13;46.70;;;36.33;;
11962;SDS011;62678;52.130;5.584;2023-05-08T03:46:41;48.47;;;37.70;;
11962;SDS011;62678;52.130;5.584;2023-05-08T03:49:09;50.60;;;37.22;;
11962;SDS011;62678;52.130;5.584;2023-05-08T03:51:37;49.78;;;37.53;;
11962;SDS011;62678;52.130;5.584;2023-05-08T03:54:04;43.55;;;34.95;;
11962;SDS011;62678;52.130;5.584;2023-05-08T03:56:32;42.08;;;33.80;;
11962;SDS011;62678;52.130;5.584;2023-05-08T03:59:02;45.25;;;34.70;;
11962;SDS011;62678;52.130;5.584;2023-05-08T04:01:36;46.38;;;34.85;;
11962;SDS011;62678;52.130;5.584;2023-05-08T04:04:06;46.45;;;34.58;;
11962;SDS011;62678;52.130;5.584;2023-05-08T04:06:39;43.30;;;33.88;;
11962;SDS011;62678;52.130;5.584;2023-05-08T04:09:12;55.25;;;36.75;;
11962;SDS011;62678;52.130;5.584;2023-05-08T04:11:43;45.17;;;34.88;;
11962;SDS011;62678;52.130;5.584;2023-05-08T04:14:19;58.47;;;36.83;;
11962;SDS011;62678;52.130;5.584;2023-05-08T04:16:50;47.60;;;34.85;;
11962;SDS011;62678;52.130;5.584;2023-05-08T04:19:22;58.97;;;36.55;;
11962;SDS011;62678;52.130;5.584;2023-05-08T04:21:51;49.00;;;34.88;;
11962;SDS011;62678;52.130;5.584;2023-05-08T04:24:22;50.60;;;34.08;;
11962;SDS011;62678;52.130;5.584;2023-05-08T04:26:52;49.30;;;34.53;;
11962;SDS011;62678;52.130;5.584;2023-05-08T04:29:21;44.33;;;32.08;;
11962;SDS011;62678;52.130;5.584;2023-05-08T04:31:48;50.70;;;34.05;;
11962;SDS011;62678;52.130;5.584;2023-05-08T04:34:16;45.60;;;32.17;;
11962;SDS011;62678;52.130;5.584;2023-05-08T04:36:43;43.17;;;32.10;;
11962;SDS011;62678;52.130;5.584;2023-05-08T04:39:12;39.90;;;31.63;;
11962;SDS011;62678;52.130;5.584;2023-05-08T04:41:39;44.67;;;32.00;;
11962;SDS011;62678;52.130;5.584;2023-05-08T04:44:06;46.25;;;33.47;;
11962;SDS011;62678;52.130;5.584;2023-05-08T04:46:34;42.47;;;32.20;;
11962;SDS011;62678;52.130;5.584;2023-05-08T04:49:01;44.83;;;32.83;;
11962;SDS011;62678;52.130;5.584;2023-05-08T04:51:27;45.20;;;32.28;;
11962;SDS011;62678;52.130;5.584;2023-05-08T04:53:55;40.97;;;31.65;;
11962;SDS011;62678;52.130;5.584;2023-05-08T04:56:22;42.00;;;32.55;;
11962;SDS011;62678;52.130;5.584;2023-05-08T04:58:50;39.40;;;31.70;;
11962;SDS011;62678;52.130;5.584;2023-05-08T05:01:17;41.90;;;32.22;;
11962;SDS011;62678;52.130;5.584;2023-05-08T05:03:45;38.50;;;30.30;;
11962;SDS011;62678;52.130;5.584;2023-05-08T05:06:12;40.30;;;32.20;;
11962;SDS011;62678;52.130;5.584;2023-05-08T05:08:39;42.80;;;32.38;;
11962;SDS011;62678;52.130;5.584;2023-05-08T05:11:06;38.83;;;31.25;;
11962;SDS011;62678;52.130;5.584;2023-05-08T05:13:36;43.15;;;33.47;;
11962;SDS011;62678;52.130;5.584;2023-05-08T05:16:02;44.38;;;34.50;;
11962;SDS011;62678;52.130;5.584;2023-05-08T05:18:29;43.08;;;32.30;;
11962;SDS011;62678;52.130;5.584;2023-05-08T05:20:58;45.92;;;35.45;;
11962;SDS011;62678;52.130;5.584;2023-05-08T05:23:25;50.28;;;37.28;;
11962;SDS011;62678;52.130;5.584;2023-05-08T05:25:52;43.33;;;34.63;;
11962;SDS011;62678;52.130;5.584;2023-05-08T05:28:19;50.25;;;34.97;;
11962;SDS011;62678;52.130;5.584;2023-05-08T05:30:46;44.42;;;34.53;;
11962;SDS011;62678;52.130;5.584;2023-05-08T05:33:13;40.33;;;31.67;;
11962;SDS011;62678;52.130;5.584;2023-05-08T05:35:39;41.47;;;32.58;;
11962;SDS011;62678;52.130;5.584;2023-05-08T05:38:08;34.63;;;29.13;;
11962;SDS011;62678;52.130;5.584;2023-05-08T05:40:35;35.83;;;29.50;;
11962;SDS011;62678;52.130;5.584;2023-05-08T05:43:01;37.88;;;32.03;;
11962;SDS011;62678;52.130;5.584;2023-05-08T05:45:28;37.30;;;31.73;;
11962;SDS011;62678;52.130;5.584;2023-05-08T05:47:56;37.85;;;30.75;;
11962;SDS011;62678;52.130;5.584;2023-05-08T05:50:23;35.72;;;30.40;;
11962;SDS011;62678;52.130;5.584;2023-05-08T05:52:50;31.85;;;28.38;;
11962;SDS011;62678;52.130;5.584;2023-05-08T05:55:18;33.33;;;28.40;;
11962;SDS011;62678;52.130;5.584;2023-05-08T05:57:46;33.67;;;29.20;;
11962;SDS011;62678;52.130;5.584;2023-05-08T06:00:13;29.55;;;26.35;;
11962;SDS011;62678;52.130;5.584;2023-05-08T06:02:40;31.75;;;28.08;;
11962;SDS011;62678;52.130;5.584;2023-05-08T06:05:08;31.92;;;27.58;;
11962;SDS011;62678;52.130;5.584;2023-05-08T06:07:35;31.08;;;27.77;;
11962;SDS011;62678;52.130;5.584;2023-05-08T06:10:02;30.05;;;26.77;;
11962;SDS011;62678;52.130;5.584;2023-05-08T06:12:30;30.23;;;26.38;;
11962;SDS011;62678;52.130;5.584;2023-05-08T06:14:57;29.92;;;26.70;;
11962;SDS011;62678;52.130;5.584;2023-05-08T06:17:24;31.92;;;26.70;;
11962;SDS011;62678;52.130;5.584;2023-05-08T06:19:51;30.55;;;26.63;;
11962;SDS011;62678;52.130;5.584;2023-05-08T06:22:20;30.63;;;27.42;;
11962;SDS011;62678;52.130;5.584;2023-05-08T06:24:48;30.65;;;27.35;;
11962;SDS011;62678;52.130;5.584;2023-05-08T06:27:17;32.88;;;27.63;;
11962;SDS011;62678;52.130;5.584;2023-05-08T06:29:45;30.88;;;27.42;;
11962;SDS011;62678;52.130;5.584;2023-05-08T06:32:12;31.77;;;28.45;;
11962;SDS011;62678;52.130;5.584;2023-05-08T06:34:39;32.33;;;28.75;;
11962;SDS011;62678;52.130;5.584;2023-05-08T06:37:06;30.38;;;26.90;;
11962;SDS011;62678;52.130;5.584;2023-05-08T06:39:33;31.10;;;27.80;;
11962;SDS011;62678;52.130;5.584;2023-05-08T06:42:00;31.80;;;28.40;;
11962;SDS011;62678;52.130;5.584;2023-05-08T06:44:27;32.45;;;28.95;;
11962;SDS011;62678;52.130;5.584;2023-05-08T06:46:56;32.75;;;29.25;;
11962;SDS011;62678;52.130;5.584;2023-05-08T06:49:23;33.50;;;29.20;;
11962;SDS011;62678;52.130;5.584;2023-05-08T06:51:51;33.55;;;30.02;;
11962;SDS011;62678;52.130;5.584;2023-05-08T06:54:18;33.03;;;29.50;;
11962;SDS011;62678;52.130;5.584;2023-05-08T06:56:45;33.67;;;29.70;;
11962;SDS011;62678;52.130;5.584;2023-05-08T06:59:12;33.92;;;30.25;;
11962;SDS011;62678;52.130;5.584;2023-05-08T07:01:39;34.05;;;29.52;;
11962;SDS011;62678;52.130;5.584;2023-05-08T07:04:08;33.58;;;30.13;;
11962;SDS011;62678;52.130;5.584;2023-05-08T07:06:35;35.50;;;29.98;;
11962;SDS011;62678;52.130;5.584;2023-05-08T07:09:02;34.22;;;30.42;;
11962;SDS011;62678;52.130;5.584;2023-05-08T07:11:29;34.28;;;29.42;;
11962;SDS011;62678;52.130;5.584;2023-05-08T07:13:57;31.95;;;28.55;;
11962;SDS011;62678;52.130;5.584;2023-05-08T07:16:24;31.35;;;28.17;;
11962;SDS011;62678;52.130;5.584;2023-05-08T07:18:51;31.17;;;27.55;;
11962;SDS011;62678;52.130;5.584;2023-05-08T07:21:19;32.42;;;28.95;;
11962;SDS011;62678;52.130;5.584;2023-05-08T07:23:46;31.17;;;28.10;;
11962;SDS011;62678;52.130;5.584;2023-05-08T07:26:16;30.70;;;27.50;;
11962;SDS011;62678;52.130;5.584;2023-05-08T07:28:43;34.75;;;29.52;;
11962;SDS011;62678;52.130;5.584;2023-05-08T07:31:10;34.20;;;29.77;;
11962;SDS011;62678;52.130;5.584;2023-05-08T07:33:37;33.53;;;30.05;;
11962;SDS011;62678;52.130;5.584;2023-05-08T07:36:05;36.05;;;31.70;;
11962;SDS011;62678;52.130;5.584;2023-05-08T07:38:33;33.85;;;30.25;;
11962;SDS011;62678;52.130;5.584;2023-05-08T07:41:00;35.22;;;31.45;;
11962;SDS011;62678;52.130;5.584;2023-05-08T07:43:29;34.65;;;31.15;;
11962;SDS011;62678;52.130;5.584;2023-05-08T07:45:56;33.40;;;29.90;;
11962;SDS011;62678;52.130;5.584;2023-05-08T07:48:24;33.72;;;30.00;;
11962;SDS011;62678;52.130;5.584;2023-05-08T07:50:51;34.25;;;30.65;;
11962;SDS011;62678;52.130;5.584;2023-05-08T07:53:18;33.65;;;29.77;;
11962;SDS011;62678;52.130;5.584;2023-05-08T07:55:46;34.42;;;30.63;;
11962;SDS011;62678;52.130;5.584;2023-05-08T07:58:14;33.13;;;29.60;;
11962;SDS011;62678;52.130;5.584;2023-05-08T08:00:43;32.90;;;29.35;;
11962;SDS011;62678;52.130;5.584;2023-05-08T08:03:11;32.42;;;28.92;;
11962;SDS011;62678;52.130;5.584;2023-05-08T08:05:38;33.60;;;30.15;;
11962;SDS011;62678;52.130;5.584;2023-05-08T08:08:07;36.13;;;30.00;;
11962;SDS011;62678;52.130;5.584;2023-05-08T08:10:34;34.45;;;30.67;;
11962;SDS011;62678;52.130;5.584;2023-05-08T08:13:03;35.85;;;32.08;;
11962;SDS011;62678;52.130;5.584;2023-05-08T08:15:30;35.03;;;30.85;;
11962;SDS011;62678;52.130;5.584;2023-05-08T08:17:57;35.05;;;31.25;;
11962;SDS011;62678;52.130;5.584;2023-05-08T08:20:24;35.00;;;31.30;;
11962;SDS011;62678;52.130;5.584;2023-05-08T08:22:51;38.22;;;32.03;;
11962;SDS011;62678;52.130;5.584;2023-05-08T08:25:18;37.65;;;33.55;;
11962;SDS011;62678;52.130;5.584;2023-05-08T08:27:49;37.30;;;33.15;;
11962;SDS011;62678;52.130;5.584;2023-05-08T08:30:18;35.97;;;32.08;;
11962;SDS011;62678;52.130;5.584;2023-05-08T08:32:45;37.50;;;32.70;;
11962;SDS011;62678;52.130;5.584;2023-05-08T08:35:12;37.47;;;33.45;;
11962;SDS011;62678;52.130;5.584;2023-05-08T08:37:42;36.40;;;32.60;;
11962;SDS011;62678;52.130;5.584;2023-05-08T08:40:10;37.05;;;33.25;;
11962;SDS011;62678;52.130;5.584;2023-05-08T08:42:37;35.65;;;31.80;;
11962;SDS011;62678;52.130;5.584;2023-05-08T08:45:06;37.35;;;33.45;;
11962;SDS011;62678;52.130;5.584;2023-05-08T08:47:35;38.15;;;34.05;;
11962;SDS011;62678;52.130;5.584;2023-05-08T08:50:05;38.63;;;32.83;;
11962;SDS011;62678;52.130;5.584;2023-05-08T08:52:37;39.78;;;35.05;;
11962;SDS011;62678;52.130;5.584;2023-05-08T08:55:28;35.90;;;31.95;;
11962;SDS011;62678;52.130;5.584;2023-05-08T08:58:01;36.45;;;32.55;;
11962;SDS011;62678;52.130;5.584;2023-05-08T09:00:33;35.17;;;31.33;;
11962;SDS011;62678;52.130;5.584;2023-05-08T09:03:05;34.67;;;30.95;;
11962;SDS011;62678;52.130;5.584;2023-05-08T09:05:32;34.42;;;30.75;;
11962;SDS011;62678;52.130;5.584;2023-05-08T09:08:00;33.20;;;29.80;;
11962;SDS011;62678;52.130;5.584;2023-05-08T09:10:27;33.15;;;29.75;;
11962;SDS011;62678;52.130;5.584;2023-05-08T09:12:54;33.25;;;30.00;;
11962;SDS011;62678;52.130;5.584;2023-05-08T09:15:21;33.80;;;30.33;;
11962;SDS011;62678;52.130;5.584;2023-05-08T09:17:48;32.92;;;29.52;;
11962;SDS011;62678;52.130;5.584;2023-05-08T09:20:20;33.45;;;30.05;;
11962;SDS011;62678;52.130;5.584;2023-05-08T09:22:47;31.88;;;28.48;;
11962;SDS011;62678;52.130;5.584;2023-05-08T09:25:18;31.10;;;27.80;;
11962;SDS011;62678;52.130;5.584;2023-05-08T09:27:45;30.65;;;27.58;;
11962;SDS011;62678;52.130;5.584;2023-05-08T09:30:12;31.40;;;27.83;;
11962;SDS011;62678;52.130;5.584;2023-05-08T09:32:43;31.55;;;28.17;;
11962;SDS011;62678;52.130;5.584;2023-05-08T09:35:14;30.08;;;26.83;;
11962;SDS011;62678;52.130;5.584;2023-05-08T09:37:44;29.65;;;26.45;;
11962;SDS011;62678;52.130;5.584;2023-05-08T09:40:12;28.63;;;25.70;;
11962;SDS011;62678;52.130;5.584;2023-05-08T09:42:41;30.55;;;27.38;;
11962;SDS011;62678;52.130;5.584;2023-05-08T09:45:09;30.35;;;27.25;;
11962;SDS011;62678;52.130;5.584;2023-05-08T09:47:36;30.67;;;27.58;;
11962;SDS011;62678;52.130;5.584;2023-05-08T09:50:06;29.23;;;26.30;;
11962;SDS011;62678;52.130;5.584;2023-05-08T09:52:35;28.77;;;25.48;;
11962;SDS011;62678;52.130;5.584;2023-05-08T09:55:05;29.67;;;26.77;;
11962;SDS011;62678;52.130;5.584;2023-05-08T09:57:34;28.52;;;25.58;;
11962;SDS011;62678;52.130;5.584;2023-05-08T10:00:04;28.35;;;25.55;;
11962;SDS011;62678;52.130;5.584;2023-05-08T10:02:33;28.92;;;26.05;;
11962;SDS011;62678;52.130;5.584;2023-05-08T10:05:00;30.83;;;27.63;;
11962;SDS011;62678;52.130;5.584;2023-05-08T10:07:30;30.10;;;26.80;;
11962;SDS011;62678;52.130;5.584;2023-05-08T10:09:58;28.15;;;25.27;;
11962;SDS011;62678;52.130;5.584;2023-05-08T10:12:28;27.75;;;24.95;;
11962;SDS011;62678;52.130;5.584;2023-05-08T10:14:56;28.05;;;25.17;;
11962;SDS011;62678;52.130;5.584;2023-05-08T10:17:25;28.15;;;25.35;;
11962;SDS011;62678;52.130;5.584;2023-05-08T10:19:54;28.50;;;25.08;;
11962;SDS011;62678;52.130;5.584;2023-05-08T10:22:26;27.45;;;24.65;;
11962;SDS011;62678;52.130;5.584;2023-05-08T10:24:55;29.60;;;26.63;;
11962;SDS011;62678;52.130;5.584;2023-05-08T10:27:29;29.08;;;26.08;;
11962;SDS011;62678;52.130;5.584;2023-05-08T10:30:00;31.15;;;28.02;;
11962;SDS011;62678;52.130;5.584;2023-05-08T10:32:30;31.73;;;28.35;;
11962;SDS011;62678;52.130;5.584;2023-05-08T10:35:05;32.58;;;29.23;;
11962;SDS011;62678;52.130;5.584;2023-05-08T10:37:35;33.20;;;29.83;;
11962;SDS011;62678;52.130;5.584;2023-05-08T10:40:03;33.92;;;30.52;;
11962;SDS011;62678;52.130;5.584;2023-05-08T10:42:33;32.28;;;28.88;;
11962;SDS011;62678;52.130;5.584;2023-05-08T10:45:01;32.45;;;29.05;;
11962;SDS011;62678;52.130;5.584;2023-05-08T10:47:41;32.67;;;28.92;;
11962;SDS011;62678;52.130;5.584;2023-05-08T10:50:16;32.08;;;28.98;;
11962;SDS011;62678;52.130;5.584;2023-05-08T10:52:58;31.55;;;28.35;;
11962;SDS011;62678;52.130;5.584;2023-05-08T10:55:32;31.33;;;28.05;;
11962;SDS011;62678;52.130;5.584;2023-05-08T10:58:08;32.55;;;29.23;;
11962;SDS011;62678;52.130;5.584;2023-05-08T11:03:40;33.22;;;29.90;;
11962;SDS011;62678;52.130;5.584;2023-05-08T11:06:11;31.92;;;28.75;;
11962;SDS011;62678;52.130;5.584;2023-05-08T11:08:43;31.48;;;28.38;;
11962;SDS011;62678;52.130;5.584;2023-05-08T11:11:28;31.38;;;28.38;;
11962;SDS011;62678;52.130;5.584;2023-05-08T11:14:08;29.80;;;26.90;;
11962;SDS011;62678;52.130;5.584;2023-05-08T11:19:28;29.40;;;26.48;;
11962;SDS011;62678;52.130;5.584;2023-05-08T11:22:11;32.15;;;28.38;;
11962;SDS011;62678;52.130;5.584;2023-05-08T11:24:46;34.35;;;29.35;;
11962;SDS011;62678;52.130;5.584;2023-05-08T11:27:15;37.78;;;32.10;;
11962;SDS011;62678;52.130;5.584;2023-05-08T11:29:43;37.00;;;30.73;;
11962;SDS011;62678;52.130;5.584;2023-05-08T11:38:15;42.88;;;34.10;;
11962;SDS011;62678;52.130;5.584;2023-05-08T11:40:46;40.63;;;33.83;;
11962;SDS011;62678;52.130;5.584;2023-05-08T11:46:29;45.22;;;36.83;;
11962;SDS011;62678;52.130;5.584;2023-05-08T11:49:09;43.05;;;35.35;;
11962;SDS011;62678;52.130;5.584;2023-05-08T11:51:39;43.92;;;35.03;;
11962;SDS011;62678;52.130;5.584;2023-05-08T11:54:09;50.22;;;38.75;;
11962;SDS011;62678;52.130;5.584;2023-05-08T11:56:37;53.13;;;40.03;;
11962;SDS011;62678;52.130;5.584;2023-05-08T11:59:05;54.47;;;39.35;;
11962;SDS011;62678;52.130;5.584;2023-05-08T12:01:37;49.38;;;38.53;;
11962;SDS011;62678;52.130;5.584;2023-05-08T12:04:05;48.47;;;38.17;;
11962;SDS011;62678;52.130;5.584;2023-05-08T12:06:34;49.28;;;37.20;;
11962;SDS011;62678;52.130;5.584;2023-05-08T12:09:08;51.33;;;38.80;;
11962;SDS011;62678;52.130;5.584;2023-05-08T12:11:36;51.40;;;38.83;;
11962;SDS011;62678;52.130;5.584;2023-05-08T12:14:05;47.97;;;37.15;;
11962;SDS011;62678;52.130;5.584;2023-05-08T12:16:33;54.00;;;41.50;;
11962;SDS011;62678;52.130;5.584;2023-05-08T12:19:09;54.03;;;41.30;;
11962;SDS011;62678;52.130;5.584;2023-05-08T12:21:36;55.70;;;42.95;;
11962;SDS011;62678;52.130;5.584;2023-05-08T12:24:04;57.13;;;43.20;;
11962;SDS011;62678;52.130;5.584;2023-05-08T12:26:34;54.28;;;42.92;;
11962;SDS011;62678;52.130;5.584;2023-05-08T12:29:03;57.83;;;44.13;;
11962;SDS011;62678;52.130;5.584;2023-05-08T12:31:31;58.75;;;45.88;;
11962;SDS011;62678;52.130;5.584;2023-05-08T12:33:59;62.75;;;45.97;;
11962;SDS011;62678;52.130;5.584;2023-05-08T12:36:31;53.55;;;41.50;;
11962;SDS011;62678;52.130;5.584;2023-05-08T12:39:09;51.60;;;40.85;;
11962;SDS011;62678;52.130;5.584;2023-05-08T12:41:41;53.78;;;41.97;;
11962;SDS011;62678;52.130;5.584;2023-05-08T12:44:18;54.80;;;40.08;;
11962;SDS011;62678;52.130;5.584;2023-05-08T12:46:46;53.22;;;41.70;;
11962;SDS011;62678;52.130;5.584;2023-05-08T12:49:21;49.85;;;39.35;;
11962;SDS011;62678;52.130;5.584;2023-05-08T12:51:50;52.30;;;40.55;;
11962;SDS011;62678;52.130;5.584;2023-05-08T12:54:17;51.67;;;41.92;;
11962;SDS011;62678;52.130;5.584;2023-05-08T12:56:45;49.35;;;39.70;;
11962;SDS011;62678;52.130;5.584;2023-05-08T12:59:15;50.47;;;40.33;;
11962;SDS011;62678;52.130;5.584;2023-05-08T13:01:42;46.22;;;38.63;;
11962;SDS011;62678;52.130;5.584;2023-05-08T13:04:15;51.28;;;39.17;;
11962;SDS011;62678;52.130;5.584;2023-05-08T13:06:53;47.65;;;37.95;;
11962;SDS011;62678;52.130;5.584;2023-05-08T13:09:20;49.92;;;38.55;;
11962;SDS011;62678;52.130;5.584;2023-05-08T13:11:48;48.75;;;37.70;;
11962;SDS011;62678;52.130;5.584;2023-05-08T13:14:15;47.28;;;38.13;;
11962;SDS011;62678;52.130;5.584;2023-05-08T13:16:42;49.03;;;38.50;;
11962;SDS011;62678;52.130;5.584;2023-05-08T13:19:09;47.30;;;37.90;;
11962;SDS011;62678;52.130;5.584;2023-05-08T13:21:37;43.67;;;35.83;;
11962;SDS011;62678;52.130;5.584;2023-05-08T13:24:05;44.53;;;34.63;;
11962;SDS011;62678;52.130;5.584;2023-05-08T13:26:33;42.65;;;34.45;;
11962;SDS011;62678;52.130;5.584;2023-05-08T13:29:00;43.38;;;34.95;;
11962;SDS011;62678;52.130;5.584;2023-05-08T13:31:27;41.45;;;33.67;;
11962;SDS011;62678;52.130;5.584;2023-05-08T13:33:54;34.60;;;28.98;;
11962;SDS011;62678;52.130;5.584;2023-05-08T13:36:21;34.40;;;28.58;;
11962;SDS011;62678;52.130;5.584;2023-05-08T13:38:49;37.83;;;30.35;;
11962;SDS011;62678;52.130;5.584;2023-05-08T13:41:20;41.33;;;32.40;;
11962;SDS011;62678;52.130;5.584;2023-05-08T13:43:47;40.72;;;33.33;;
11962;SDS011;62678;52.130;5.584;2023-05-08T13:46:14;40.10;;;33.25;;
11962;SDS011;62678;52.130;5.584;2023-05-08T13:48:41;41.00;;;32.00;;
11962;SDS011;62678;52.130;5.584;2023-05-08T13:51:08;39.10;;;32.13;;
11962;SDS011;62678;52.130;5.584;2023-05-08T13:53:35;32.80;;;28.98;;
11962;SDS011;62678;52.130;5.584;2023-05-08T13:56:03;36.53;;;29.50;;
11962;SDS011;62678;52.130;5.584;2023-05-08T13:58:32;36.20;;;30.02;;
11962;SDS011;62678;52.130;5.584;2023-05-08T14:00:59;34.40;;;29.05;;
11962;SDS011;62678;52.130;5.584;2023-05-08T14:03:26;34.72;;;29.08;;
11962;SDS011;62678;52.130;5.584;2023-05-08T14:05:53;31.63;;;27.42;;
11962;SDS011;62678;52.130;5.584;2023-05-08T14:08:20;33.42;;;27.90;;
11962;SDS011;62678;52.130;5.584;2023-05-08T14:10:47;34.10;;;27.00;;
11962;SDS011;62678;52.130;5.584;2023-05-08T14:13:14;33.17;;;28.23;;
11962;SDS011;62678;52.130;5.584;2023-05-08T14:15:43;34.00;;;27.33;;
11962;SDS011;62678;52.130;5.584;2023-05-08T14:18:10;35.35;;;29.45;;
11962;SDS011;62678;52.130;5.584;2023-05-08T14:20:37;35.65;;;30.63;;
11962;SDS011;62678;52.130;5.584;2023-05-08T14:23:03;36.75;;;29.95;;
11962;SDS011;62678;52.130;5.584;2023-05-08T14:25:30;37.17;;;30.48;;
11962;SDS011;62678;52.130;5.584;2023-05-08T14:27:58;35.58;;;29.42;;
11962;SDS011;62678;52.130;5.584;2023-05-08T14:30:25;37.00;;;31.67;;
11962;SDS011;62678;52.130;5.584;2023-05-08T14:32:53;36.15;;;28.50;;
11962;SDS011;62678;52.130;5.584;2023-05-08T14:35:20;31.30;;;27.75;;
11962;SDS011;62678;52.130;5.584;2023-05-08T14:37:48;32.55;;;27.85;;
11962;SDS011;62678;52.130;5.584;2023-05-08T14:40:15;32.35;;;28.77;;
11962;SDS011;62678;52.130;5.584;2023-05-08T14:42:42;33.30;;;29.27;;
11962;SDS011;62678;52.130;5.584;2023-05-08T14:45:10;33.75;;;29.48;;
11962;SDS011;62678;52.130;5.584;2023-05-08T14:47:37;36.17;;;30.38;;